sensor_id;sensor_type;location;lat;lon;timestamp;P1;durP1;ratioP1;P2;durP2;ratioP2
50102;SDS011;35993;52.604;10.078;2022-12-17T00:00:47;40.47;;;20.80;;
50102;SDS011;35993;52.604;10.078;2022-12-17T00:03:32;41.73;;;20.50;;
50102;SDS011;35993;52.604;10.078;2022-12-17T00:06:17;40.77;;;19.87;;
50102;SDS011;35993;52.604;10.078;2022-12-17T00:09:02;38.57;;;19.50;;
50102;SDS011;35993;52.604;10.078;2022-12-17T00:11:47;39.13;;;20.50;;
50102;SDS011;35993;52.604;10.078;2022-12-17T00:14:31;44.53;;;20.13;;
50102;SDS011;35993;52.604;10.078;2022-12-17T00:17:21;41.87;;;20.03;;
50102;SDS011;35993;52.604;10.078;2022-12-17T00:20:12;34.07;;;18.87;;
50102;SDS011;35993;52.604;10.078;2022-12-17T00:23:00;35.70;;;19.37;;
50102;SDS011;35993;52.604;10.078;2022-12-17T00:25:52;37.00;;;19.63;;
50102;SDS011;35993;52.604;10.078;2022-12-17T00:28:39;42.03;;;20.63;;
50102;SDS011;35993;52.604;10.078;2022-12-17T00:31:46;41.30;;;20.27;;
50102;SDS011;35993;52.604;10.078;2022-12-17T00:34:31;35.87;;;19.07;;
50102;SDS011;35993;52.604;10.078;2022-12-17T00:37:15;34.53;;;18.97;;
50102;SDS011;35993;52.604;10.078;2022-12-17T00:40:02;38.67;;;19.70;;
50102;SDS011;35993;52.604;10.078;2022-12-17T00:42:47;36.87;;;18.90;;
50102;SDS011;35993;52.604;10.078;2022-12-17T00:45:42;35.40;;;18.20;;
50102;SDS011;35993;52.604;10.078;2022-12-17T00:48:26;39.77;;;18.50;;
50102;SDS011;35993;52.604;10.078;2022-12-17T00:51:11;36.07;;;18.50;;
50102;SDS011;35993;52.604;10.078;2022-12-17T00:53:56;38.27;;;18.47;;
50102;SDS011;35993;52.604;10.078;2022-12-17T00:56:40;36.10;;;17.80;;
50102;SDS011;35993;52.604;10.078;2022-12-17T00:59:24;33.70;;;17.97;;
50102;SDS011;35993;52.604;10.078;2022-12-17T01:02:08;35.17;;;17.77;;
50102;SDS011;35993;52.604;10.078;2022-12-17T01:04:52;34.20;;;18.73;;
50102;SDS011;35993;52.604;10.078;2022-12-17T01:07:36;33.97;;;18.80;;
50102;SDS011;35993;52.604;10.078;2022-12-17T01:10:20;37.20;;;18.83;;
50102;SDS011;35993;52.604;10.078;2022-12-17T01:13:13;42.57;;;19.33;;
50102;SDS011;35993;52.604;10.078;2022-12-17T01:16:08;40.20;;;18.97;;
50102;SDS011;35993;52.604;10.078;2022-12-17T01:18:54;36.43;;;18.20;;
50102;SDS011;35993;52.604;10.078;2022-12-17T01:21:39;38.43;;;18.07;;
50102;SDS011;35993;52.604;10.078;2022-12-17T01:24:23;37.10;;;18.30;;
50102;SDS011;35993;52.604;10.078;2022-12-17T01:27:08;35.97;;;17.50;;
50102;SDS011;35993;52.604;10.078;2022-12-17T01:29:52;36.57;;;18.83;;
50102;SDS011;35993;52.604;10.078;2022-12-17T01:32:36;38.37;;;18.03;;
50102;SDS011;35993;52.604;10.078;2022-12-17T01:35:20;36.57;;;18.60;;
50102;SDS011;35993;52.604;10.078;2022-12-17T01:38:15;34.00;;;17.17;;
50102;SDS011;35993;52.604;10.078;2022-12-17T01:41:02;31.87;;;17.50;;
50102;SDS011;35993;52.604;10.078;2022-12-17T01:43:47;39.00;;;18.33;;
50102;SDS011;35993;52.604;10.078;2022-12-17T01:46:36;33.87;;;16.93;;
50102;SDS011;35993;52.604;10.078;2022-12-17T01:49:24;39.93;;;18.53;;
50102;SDS011;35993;52.604;10.078;2022-12-17T01:52:13;35.57;;;16.43;;
50102;SDS011;35993;52.604;10.078;2022-12-17T01:54:59;37.30;;;17.57;;
50102;SDS011;35993;52.604;10.078;2022-12-17T01:57:45;35.53;;;18.47;;
50102;SDS011;35993;52.604;10.078;2022-12-17T02:00:29;31.57;;;16.97;;
50102;SDS011;35993;52.604;10.078;2022-12-17T02:03:15;39.60;;;18.83;;
50102;SDS011;35993;52.604;10.078;2022-12-17T02:06:21;37.60;;;18.27;;
50102;SDS011;35993;52.604;10.078;2022-12-17T02:09:16;34.60;;;17.63;;
50102;SDS011;35993;52.604;10.078;2022-12-17T02:12:06;37.13;;;18.83;;
50102;SDS011;35993;52.604;10.078;2022-12-17T02:15:20;35.63;;;18.40;;
50102;SDS011;35993;52.604;10.078;2022-12-17T02:18:16;36.50;;;18.83;;
50102;SDS011;35993;52.604;10.078;2022-12-17T02:21:06;33.70;;;18.23;;
50102;SDS011;35993;52.604;10.078;2022-12-17T02:26:48;34.63;;;18.10;;
50102;SDS011;35993;52.604;10.078;2022-12-17T02:29:37;36.00;;;18.57;;
50102;SDS011;35993;52.604;10.078;2022-12-17T02:32:25;36.90;;;18.53;;
50102;SDS011;35993;52.604;10.078;2022-12-17T02:35:15;36.27;;;17.60;;
50102;SDS011;35993;52.604;10.078;2022-12-17T02:38:16;36.20;;;18.20;;
50102;SDS011;35993;52.604;10.078;2022-12-17T02:41:06;37.07;;;18.50;;
50102;SDS011;35993;52.604;10.078;2022-12-17T02:43:54;38.33;;;17.90;;
50102;SDS011;35993;52.604;10.078;2022-12-17T02:46:40;41.27;;;18.57;;
50102;SDS011;35993;52.604;10.078;2022-12-17T02:49:26;40.53;;;18.33;;
50102;SDS011;35993;52.604;10.078;2022-12-17T02:52:10;33.77;;;18.07;;
50102;SDS011;35993;52.604;10.078;2022-12-17T02:54:55;36.80;;;17.93;;
50102;SDS011;35993;52.604;10.078;2022-12-17T02:57:41;34.37;;;17.90;;
50102;SDS011;35993;52.604;10.078;2022-12-17T03:00:26;38.00;;;18.30;;
50102;SDS011;35993;52.604;10.078;2022-12-17T03:03:10;40.13;;;17.83;;
50102;SDS011;35993;52.604;10.078;2022-12-17T03:05:55;40.97;;;19.17;;
50102;SDS011;35993;52.604;10.078;2022-12-17T03:08:42;38.17;;;19.07;;
50102;SDS011;35993;52.604;10.078;2022-12-17T03:11:27;39.43;;;18.13;;
50102;SDS011;35993;52.604;10.078;2022-12-17T03:14:12;36.87;;;18.63;;
50102;SDS011;35993;52.604;10.078;2022-12-17T03:16:57;35.23;;;18.17;;
50102;SDS011;35993;52.604;10.078;2022-12-17T03:19:41;37.33;;;19.03;;
50102;SDS011;35993;52.604;10.078;2022-12-17T03:22:26;35.37;;;18.73;;
50102;SDS011;35993;52.604;10.078;2022-12-17T03:25:11;35.70;;;18.70;;
50102;SDS011;35993;52.604;10.078;2022-12-17T03:27:55;37.77;;;18.37;;
50102;SDS011;35993;52.604;10.078;2022-12-17T03:30:39;37.07;;;18.07;;
50102;SDS011;35993;52.604;10.078;2022-12-17T03:33:28;34.73;;;18.07;;
50102;SDS011;35993;52.604;10.078;2022-12-17T03:36:15;36.13;;;17.77;;
50102;SDS011;35993;52.604;10.078;2022-12-17T03:39:00;33.47;;;18.10;;
50102;SDS011;35993;52.604;10.078;2022-12-17T03:41:45;32.93;;;18.07;;
50102;SDS011;35993;52.604;10.078;2022-12-17T03:44:29;31.43;;;17.23;;
50102;SDS011;35993;52.604;10.078;2022-12-17T03:47:13;40.77;;;18.17;;
50102;SDS011;35993;52.604;10.078;2022-12-17T03:49:58;33.73;;;17.63;;
50102;SDS011;35993;52.604;10.078;2022-12-17T03:52:42;31.83;;;17.30;;
50102;SDS011;35993;52.604;10.078;2022-12-17T03:55:34;33.22;;;17.52;;
50102;SDS011;35993;52.604;10.078;2022-12-17T03:58:18;32.37;;;16.93;;
50102;SDS011;35993;52.604;10.078;2022-12-17T04:01:02;33.80;;;16.90;;
50102;SDS011;35993;52.604;10.078;2022-12-17T04:03:46;29.10;;;16.40;;
50102;SDS011;35993;52.604;10.078;2022-12-17T04:06:30;29.37;;;16.47;;
50102;SDS011;35993;52.604;10.078;2022-12-17T04:09:14;29.27;;;16.20;;
50102;SDS011;35993;52.604;10.078;2022-12-17T04:11:58;35.40;;;16.60;;
50102;SDS011;35993;52.604;10.078;2022-12-17T04:14:43;30.77;;;16.37;;
50102;SDS011;35993;52.604;10.078;2022-12-17T04:17:27;33.00;;;16.80;;
50102;SDS011;35993;52.604;10.078;2022-12-17T04:20:11;32.97;;;16.67;;
50102;SDS011;35993;52.604;10.078;2022-12-17T04:22:55;38.63;;;17.87;;
50102;SDS011;35993;52.604;10.078;2022-12-17T04:25:45;34.57;;;17.57;;
50102;SDS011;35993;52.604;10.078;2022-12-17T04:28:29;32.97;;;17.53;;
50102;SDS011;35993;52.604;10.078;2022-12-17T04:31:13;30.43;;;16.53;;
50102;SDS011;35993;52.604;10.078;2022-12-17T04:33:58;30.53;;;17.53;;
50102;SDS011;35993;52.604;10.078;2022-12-17T04:36:42;32.03;;;17.13;;
50102;SDS011;35993;52.604;10.078;2022-12-17T04:39:27;32.67;;;16.67;;
50102;SDS011;35993;52.604;10.078;2022-12-17T04:42:10;31.87;;;17.00;;
50102;SDS011;35993;52.604;10.078;2022-12-17T04:44:55;30.90;;;16.67;;
50102;SDS011;35993;52.604;10.078;2022-12-17T04:47:39;30.83;;;16.63;;
50102;SDS011;35993;52.604;10.078;2022-12-17T04:50:23;29.63;;;16.07;;
50102;SDS011;35993;52.604;10.078;2022-12-17T04:53:08;34.63;;;17.47;;
50102;SDS011;35993;52.604;10.078;2022-12-17T04:55:53;34.60;;;16.87;;
50102;SDS011;35993;52.604;10.078;2022-12-17T04:58:59;32.03;;;16.77;;
50102;SDS011;35993;52.604;10.078;2022-12-17T05:01:43;33.10;;;16.77;;
50102;SDS011;35993;52.604;10.078;2022-12-17T05:04:27;32.53;;;16.57;;
50102;SDS011;35993;52.604;10.078;2022-12-17T05:07:14;32.80;;;16.60;;
50102;SDS011;35993;52.604;10.078;2022-12-17T05:09:58;30.80;;;17.30;;
50102;SDS011;35993;52.604;10.078;2022-12-17T05:12:43;35.27;;;16.73;;
50102;SDS011;35993;52.604;10.078;2022-12-17T05:15:27;33.50;;;16.10;;
50102;SDS011;35993;52.604;10.078;2022-12-17T05:18:11;30.00;;;16.37;;
50102;SDS011;35993;52.604;10.078;2022-12-17T05:20:55;34.70;;;17.27;;
50102;SDS011;35993;52.604;10.078;2022-12-17T05:23:40;35.20;;;17.03;;
50102;SDS011;35993;52.604;10.078;2022-12-17T05:26:25;33.93;;;16.77;;
50102;SDS011;35993;52.604;10.078;2022-12-17T05:29:11;35.03;;;17.47;;
50102;SDS011;35993;52.604;10.078;2022-12-17T05:31:55;32.93;;;16.93;;
50102;SDS011;35993;52.604;10.078;2022-12-17T05:34:40;32.90;;;17.23;;
50102;SDS011;35993;52.604;10.078;2022-12-17T05:37:24;32.20;;;16.77;;
50102;SDS011;35993;52.604;10.078;2022-12-17T05:40:08;37.07;;;17.40;;
50102;SDS011;35993;52.604;10.078;2022-12-17T05:42:54;31.70;;;17.00;;
50102;SDS011;35993;52.604;10.078;2022-12-17T05:45:40;33.40;;;16.77;;
50102;SDS011;35993;52.604;10.078;2022-12-17T05:48:46;39.80;;;17.27;;
50102;SDS011;35993;52.604;10.078;2022-12-17T05:51:33;32.27;;;17.17;;
50102;SDS011;35993;52.604;10.078;2022-12-17T05:54:18;32.57;;;17.53;;
50102;SDS011;35993;52.604;10.078;2022-12-17T05:57:01;33.13;;;16.77;;
50102;SDS011;35993;52.604;10.078;2022-12-17T05:59:46;37.07;;;18.00;;
50102;SDS011;35993;52.604;10.078;2022-12-17T06:02:37;34.20;;;17.53;;
50102;SDS011;35993;52.604;10.078;2022-12-17T06:05:22;31.97;;;16.73;;
50102;SDS011;35993;52.604;10.078;2022-12-17T06:08:25;34.87;;;17.37;;
50102;SDS011;35993;52.604;10.078;2022-12-17T06:11:09;35.10;;;17.10;;
50102;SDS011;35993;52.604;10.078;2022-12-17T06:13:53;33.30;;;17.53;;
50102;SDS011;35993;52.604;10.078;2022-12-17T06:16:37;30.20;;;16.53;;
50102;SDS011;35993;52.604;10.078;2022-12-17T06:19:21;32.77;;;16.77;;
50102;SDS011;35993;52.604;10.078;2022-12-17T06:22:10;29.03;;;16.83;;
50102;SDS011;35993;52.604;10.078;2022-12-17T06:24:54;36.03;;;17.30;;
50102;SDS011;35993;52.604;10.078;2022-12-17T06:27:38;31.40;;;17.20;;
50102;SDS011;35993;52.604;10.078;2022-12-17T06:30:22;34.20;;;16.40;;
50102;SDS011;35993;52.604;10.078;2022-12-17T06:33:07;32.97;;;17.27;;
50102;SDS011;35993;52.604;10.078;2022-12-17T06:35:54;35.67;;;16.53;;
50102;SDS011;35993;52.604;10.078;2022-12-17T06:38:44;30.73;;;16.87;;
50102;SDS011;35993;52.604;10.078;2022-12-17T06:41:28;33.60;;;16.63;;
50102;SDS011;35993;52.604;10.078;2022-12-17T06:44:12;34.70;;;17.53;;
50102;SDS011;35993;52.604;10.078;2022-12-17T06:46:57;33.87;;;17.10;;
50102;SDS011;35993;52.604;10.078;2022-12-17T06:49:41;29.87;;;16.73;;
50102;SDS011;35993;52.604;10.078;2022-12-17T06:52:25;34.87;;;17.63;;
50102;SDS011;35993;52.604;10.078;2022-12-17T06:55:33;32.93;;;16.33;;
50102;SDS011;35993;52.604;10.078;2022-12-17T06:58:17;29.03;;;16.70;;
50102;SDS011;35993;52.604;10.078;2022-12-17T07:01:01;35.80;;;16.20;;
50102;SDS011;35993;52.604;10.078;2022-12-17T07:03:45;34.40;;;18.10;;
50102;SDS011;35993;52.604;10.078;2022-12-17T07:06:30;33.53;;;17.47;;
50102;SDS011;35993;52.604;10.078;2022-12-17T07:09:14;35.73;;;18.07;;
50102;SDS011;35993;52.604;10.078;2022-12-17T07:11:58;47.23;;;21.67;;
50102;SDS011;35993;52.604;10.078;2022-12-17T07:14:42;40.13;;;20.00;;
50102;SDS011;35993;52.604;10.078;2022-12-17T07:17:27;39.27;;;19.00;;
50102;SDS011;35993;52.604;10.078;2022-12-17T07:20:11;34.03;;;17.53;;
50102;SDS011;35993;52.604;10.078;2022-12-17T07:22:56;37.67;;;18.30;;
50102;SDS011;35993;52.604;10.078;2022-12-17T07:25:40;36.43;;;17.70;;
50102;SDS011;35993;52.604;10.078;2022-12-17T07:28:25;38.63;;;18.03;;
50102;SDS011;35993;52.604;10.078;2022-12-17T07:31:12;39.50;;;19.07;;
50102;SDS011;35993;52.604;10.078;2022-12-17T07:33:57;41.43;;;19.80;;
50102;SDS011;35993;52.604;10.078;2022-12-17T07:36:41;48.23;;;18.57;;
50102;SDS011;35993;52.604;10.078;2022-12-17T07:39:26;36.67;;;18.23;;
50102;SDS011;35993;52.604;10.078;2022-12-17T07:42:10;42.00;;;19.47;;
50102;SDS011;35993;52.604;10.078;2022-12-17T07:44:54;42.87;;;19.33;;
50102;SDS011;35993;52.604;10.078;2022-12-17T07:47:39;38.20;;;19.20;;
50102;SDS011;35993;52.604;10.078;2022-12-17T07:50:23;41.00;;;19.43;;
50102;SDS011;35993;52.604;10.078;2022-12-17T07:53:07;41.57;;;19.60;;
50102;SDS011;35993;52.604;10.078;2022-12-17T07:55:51;37.97;;;19.10;;
50102;SDS011;35993;52.604;10.078;2022-12-17T07:58:35;48.23;;;21.53;;
50102;SDS011;35993;52.604;10.078;2022-12-17T08:01:19;41.27;;;21.67;;
50102;SDS011;35993;52.604;10.078;2022-12-17T08:04:04;44.17;;;19.93;;
50102;SDS011;35993;52.604;10.078;2022-12-17T08:06:49;37.37;;;19.70;;
50102;SDS011;35993;52.604;10.078;2022-12-17T08:10:00;37.25;;;18.80;;
50102;SDS011;35993;52.604;10.078;2022-12-17T08:12:55;40.10;;;19.43;;
50102;SDS011;35993;52.604;10.078;2022-12-17T08:15:40;36.63;;;18.77;;
50102;SDS011;35993;52.604;10.078;2022-12-17T08:18:25;43.67;;;20.70;;
50102;SDS011;35993;52.604;10.078;2022-12-17T08:21:09;37.70;;;19.60;;
50102;SDS011;35993;52.604;10.078;2022-12-17T08:23:53;40.10;;;20.40;;
50102;SDS011;35993;52.604;10.078;2022-12-17T08:26:37;39.40;;;19.10;;
50102;SDS011;35993;52.604;10.078;2022-12-17T08:29:21;41.23;;;19.33;;
50102;SDS011;35993;52.604;10.078;2022-12-17T08:32:05;35.67;;;20.00;;
50102;SDS011;35993;52.604;10.078;2022-12-17T08:34:49;36.77;;;18.60;;
50102;SDS011;35993;52.604;10.078;2022-12-17T08:37:34;36.40;;;19.47;;
50102;SDS011;35993;52.604;10.078;2022-12-17T08:40:18;38.70;;;19.07;;
50102;SDS011;35993;52.604;10.078;2022-12-17T08:43:01;36.50;;;18.17;;
50102;SDS011;35993;52.604;10.078;2022-12-17T08:45:49;32.97;;;18.00;;
50102;SDS011;35993;52.604;10.078;2022-12-17T08:48:34;37.50;;;19.23;;
50102;SDS011;35993;52.604;10.078;2022-12-17T08:51:19;34.23;;;17.90;;
50102;SDS011;35993;52.604;10.078;2022-12-17T08:54:04;34.40;;;17.53;;
50102;SDS011;35993;52.604;10.078;2022-12-17T08:57:14;40.70;;;18.57;;
50102;SDS011;35993;52.604;10.078;2022-12-17T08:59:58;39.87;;;18.63;;
50102;SDS011;35993;52.604;10.078;2022-12-17T09:02:43;37.97;;;18.87;;
50102;SDS011;35993;52.604;10.078;2022-12-17T09:05:27;41.73;;;17.93;;
50102;SDS011;35993;52.604;10.078;2022-12-17T09:08:11;34.40;;;18.30;;
50102;SDS011;35993;52.604;10.078;2022-12-17T09:10:58;33.97;;;17.70;;
50102;SDS011;35993;52.604;10.078;2022-12-17T09:13:43;33.97;;;16.83;;
50102;SDS011;35993;52.604;10.078;2022-12-17T09:16:27;35.20;;;17.87;;
50102;SDS011;35993;52.604;10.078;2022-12-17T09:19:12;36.33;;;18.67;;
50102;SDS011;35993;52.604;10.078;2022-12-17T09:21:56;37.27;;;18.33;;
50102;SDS011;35993;52.604;10.078;2022-12-17T09:24:40;35.63;;;17.17;;
50102;SDS011;35993;52.604;10.078;2022-12-17T09:27:24;34.90;;;18.70;;
50102;SDS011;35993;52.604;10.078;2022-12-17T09:30:09;37.23;;;18.10;;
50102;SDS011;35993;52.604;10.078;2022-12-17T09:32:54;34.17;;;17.57;;
50102;SDS011;35993;52.604;10.078;2022-12-17T09:35:38;30.43;;;16.43;;
50102;SDS011;35993;52.604;10.078;2022-12-17T09:38:38;30.87;;;16.33;;
50102;SDS011;35993;52.604;10.078;2022-12-17T09:41:27;32.47;;;17.33;;
50102;SDS011;35993;52.604;10.078;2022-12-17T09:44:50;32.77;;;16.60;;
50102;SDS011;35993;52.604;10.078;2022-12-17T09:50:49;35.53;;;16.03;;
50102;SDS011;35993;52.604;10.078;2022-12-17T09:53:47;30.97;;;16.47;;
50102;SDS011;35993;52.604;10.078;2022-12-17T09:56:36;28.93;;;15.57;;
50102;SDS011;35993;52.604;10.078;2022-12-17T09:59:26;31.60;;;15.77;;
50102;SDS011;35993;52.604;10.078;2022-12-17T10:02:19;31.40;;;15.67;;
50102;SDS011;35993;52.604;10.078;2022-12-17T10:05:21;31.45;;;16.25;;
50102;SDS011;35993;52.604;10.078;2022-12-17T10:08:10;29.37;;;15.33;;
50102;SDS011;35993;52.604;10.078;2022-12-17T10:10:58;27.33;;;14.93;;
50102;SDS011;35993;52.604;10.078;2022-12-17T10:13:52;31.13;;;15.70;;
50102;SDS011;35993;52.604;10.078;2022-12-17T10:16:38;29.70;;;15.27;;
50102;SDS011;35993;52.604;10.078;2022-12-17T10:19:34;38.53;;;16.27;;
50102;SDS011;35993;52.604;10.078;2022-12-17T10:22:23;31.03;;;15.13;;
50102;SDS011;35993;52.604;10.078;2022-12-17T10:25:19;28.43;;;15.07;;
50102;SDS011;35993;52.604;10.078;2022-12-17T10:28:09;28.33;;;15.33;;
50102;SDS011;35993;52.604;10.078;2022-12-17T10:30:56;28.97;;;15.30;;
50102;SDS011;35993;52.604;10.078;2022-12-17T10:33:41;27.53;;;14.23;;
50102;SDS011;35993;52.604;10.078;2022-12-17T10:36:26;27.43;;;14.40;;
50102;SDS011;35993;52.604;10.078;2022-12-17T10:39:23;30.67;;;15.43;;
50102;SDS011;35993;52.604;10.078;2022-12-17T10:42:22;27.70;;;13.83;;
50102;SDS011;35993;52.604;10.078;2022-12-17T10:48:01;27.57;;;14.10;;
50102;SDS011;35993;52.604;10.078;2022-12-17T10:50:51;30.40;;;14.20;;
50102;SDS011;35993;52.604;10.078;2022-12-17T10:53:35;27.33;;;14.10;;
50102;SDS011;35993;52.604;10.078;2022-12-17T10:56:21;27.17;;;13.10;;
50102;SDS011;35993;52.604;10.078;2022-12-17T10:59:23;27.67;;;13.90;;
50102;SDS011;35993;52.604;10.078;2022-12-17T11:02:35;23.40;;;11.67;;
50102;SDS011;35993;52.604;10.078;2022-12-17T11:08:11;23.00;;;12.43;;
50102;SDS011;35993;52.604;10.078;2022-12-17T11:11:10;23.33;;;11.30;;
50102;SDS011;35993;52.604;10.078;2022-12-17T11:13:57;23.27;;;11.30;;
50102;SDS011;35993;52.604;10.078;2022-12-17T11:16:50;23.40;;;11.90;;
50102;SDS011;35993;52.604;10.078;2022-12-17T11:19:40;25.13;;;11.53;;
50102;SDS011;35993;52.604;10.078;2022-12-17T11:23:17;22.00;;;10.90;;
50102;SDS011;35993;52.604;10.078;2022-12-17T11:26:10;24.13;;;10.73;;
50102;SDS011;35993;52.604;10.078;2022-12-17T11:28:58;22.57;;;10.67;;
50102;SDS011;35993;52.604;10.078;2022-12-17T11:32:03;22.85;;;10.60;;
50102;SDS011;35993;52.604;10.078;2022-12-17T11:38:15;21.47;;;10.33;;
50102;SDS011;35993;52.604;10.078;2022-12-17T11:41:21;18.50;;;10.13;;
50102;SDS011;35993;52.604;10.078;2022-12-17T11:47:20;16.23;;;9.03;;
50102;SDS011;35993;52.604;10.078;2022-12-17T11:56:46;23.00;;;10.43;;
50102;SDS011;35993;52.604;10.078;2022-12-17T11:59:52;17.63;;;9.30;;
50102;SDS011;35993;52.604;10.078;2022-12-17T12:02:54;17.80;;;8.13;;
50102;SDS011;35993;52.604;10.078;2022-12-17T12:06:13;19.17;;;8.93;;
50102;SDS011;35993;52.604;10.078;2022-12-17T12:09:15;17.17;;;8.80;;
50102;SDS011;35993;52.604;10.078;2022-12-17T12:12:10;16.60;;;8.23;;
50102;SDS011;35993;52.604;10.078;2022-12-17T12:15:39;18.20;;;8.80;;
50102;SDS011;35993;52.604;10.078;2022-12-17T12:18:54;15.90;;;8.20;;
50102;SDS011;35993;52.604;10.078;2022-12-17T12:22:03;18.90;;;9.03;;
50102;SDS011;35993;52.604;10.078;2022-12-17T12:34:07;14.47;;;7.00;;
50102;SDS011;35993;52.604;10.078;2022-12-17T12:37:02;13.57;;;6.70;;
50102;SDS011;35993;52.604;10.078;2022-12-17T12:39:50;10.80;;;6.47;;
50102;SDS011;35993;52.604;10.078;2022-12-17T12:46:32;12.97;;;6.47;;
50102;SDS011;35993;52.604;10.078;2022-12-17T12:52:14;13.37;;;6.27;;
50102;SDS011;35993;52.604;10.078;2022-12-17T12:58:01;12.70;;;6.30;;
50102;SDS011;35993;52.604;10.078;2022-12-17T13:11:39;12.43;;;6.90;;
50102;SDS011;35993;52.604;10.078;2022-12-17T13:14:10;17.00;;;7.10;;
50102;SDS011;35993;52.604;10.078;2022-12-17T13:24:52;17.37;;;7.13;;
50102;SDS011;35993;52.604;10.078;2022-12-17T13:41:29;15.13;;;7.97;;
50102;SDS011;35993;52.604;10.078;2022-12-17T13:46:43;13.73;;;6.73;;
50102;SDS011;35993;52.604;10.078;2022-12-17T13:49:17;15.67;;;7.53;;
50102;SDS011;35993;52.604;10.078;2022-12-17T13:51:46;16.00;;;8.07;;
50102;SDS011;35993;52.604;10.078;2022-12-17T13:54:17;17.43;;;7.73;;
50102;SDS011;35993;52.604;10.078;2022-12-17T13:56:44;12.13;;;6.95;;
50102;SDS011;35993;52.604;10.078;2022-12-17T13:59:16;15.77;;;7.87;;
50102;SDS011;35993;52.604;10.078;2022-12-17T14:01:45;15.83;;;7.70;;
50102;SDS011;35993;52.604;10.078;2022-12-17T14:04:22;15.00;;;8.30;;
50102;SDS011;35993;52.604;10.078;2022-12-17T14:06:53;14.57;;;7.37;;
50102;SDS011;35993;52.604;10.078;2022-12-17T14:09:23;15.00;;;7.20;;
50102;SDS011;35993;52.604;10.078;2022-12-17T14:11:56;20.07;;;7.87;;
50102;SDS011;35993;52.604;10.078;2022-12-17T14:14:44;18.27;;;8.40;;
50102;SDS011;35993;52.604;10.078;2022-12-17T14:17:16;16.45;;;8.00;;
50102;SDS011;35993;52.604;10.078;2022-12-17T14:19:47;13.70;;;7.73;;
50102;SDS011;35993;52.604;10.078;2022-12-17T14:22:34;16.27;;;7.60;;
50102;SDS011;35993;52.604;10.078;2022-12-17T14:25:03;17.42;;;7.72;;
50102;SDS011;35993;52.604;10.078;2022-12-17T14:27:31;16.97;;;8.10;;
50102;SDS011;35993;52.604;10.078;2022-12-17T14:29:59;16.27;;;8.20;;
50102;SDS011;35993;52.604;10.078;2022-12-17T14:32:33;17.40;;;8.67;;
50102;SDS011;35993;52.604;10.078;2022-12-17T14:35:00;16.90;;;8.50;;
50102;SDS011;35993;52.604;10.078;2022-12-17T14:37:28;18.77;;;8.50;;
50102;SDS011;35993;52.604;10.078;2022-12-17T14:39:57;16.13;;;8.40;;
50102;SDS011;35993;52.604;10.078;2022-12-17T14:42:26;18.02;;;8.43;;
50102;SDS011;35993;52.604;10.078;2022-12-17T14:44:57;15.57;;;8.03;;
50102;SDS011;35993;52.604;10.078;2022-12-17T14:47:28;20.47;;;8.80;;
50102;SDS011;35993;52.604;10.078;2022-12-17T14:50:00;19.83;;;9.40;;
50102;SDS011;35993;52.604;10.078;2022-12-17T14:52:45;21.80;;;10.33;;
50102;SDS011;35993;52.604;10.078;2022-12-17T14:56:20;21.37;;;10.67;;
50102;SDS011;35993;52.604;10.078;2022-12-17T14:58:20;19.90;;;9.33;;
50102;SDS011;35993;52.604;10.078;2022-12-17T15:00:49;19.07;;;9.47;;
50102;SDS011;35993;52.604;10.078;2022-12-17T15:03:24;22.27;;;10.03;;
50102;SDS011;35993;52.604;10.078;2022-12-17T15:05:57;16.33;;;8.80;;
50102;SDS011;35993;52.604;10.078;2022-12-17T15:08:28;18.33;;;9.43;;
50102;SDS011;35993;52.604;10.078;2022-12-17T15:10:58;19.25;;;8.63;;
50102;SDS011;35993;52.604;10.078;2022-12-17T15:13:24;16.10;;;8.53;;
50102;SDS011;35993;52.604;10.078;2022-12-17T15:15:49;17.10;;;8.60;;
50102;SDS011;35993;52.604;10.078;2022-12-17T15:18:15;18.13;;;8.93;;
50102;SDS011;35993;52.604;10.078;2022-12-17T15:20:41;22.30;;;10.00;;
50102;SDS011;35993;52.604;10.078;2022-12-17T15:23:17;20.63;;;10.30;;
50102;SDS011;35993;52.604;10.078;2022-12-17T15:25:45;15.60;;;9.17;;
50102;SDS011;35993;52.604;10.078;2022-12-17T15:28:12;19.13;;;8.70;;
50102;SDS011;35993;52.604;10.078;2022-12-17T15:30:38;17.00;;;7.83;;
50102;SDS011;35993;52.604;10.078;2022-12-17T15:33:07;19.33;;;8.33;;
50102;SDS011;35993;52.604;10.078;2022-12-17T15:35:34;15.67;;;7.60;;
50102;SDS011;35993;52.604;10.078;2022-12-17T15:38:00;14.10;;;7.90;;
50102;SDS011;35993;52.604;10.078;2022-12-17T15:40:27;15.97;;;7.80;;
50102;SDS011;35993;52.604;10.078;2022-12-17T15:42:53;16.83;;;8.30;;
50102;SDS011;35993;52.604;10.078;2022-12-17T15:45:37;15.53;;;8.33;;
50102;SDS011;35993;52.604;10.078;2022-12-17T15:48:03;15.73;;;8.17;;
50102;SDS011;35993;52.604;10.078;2022-12-17T15:50:29;15.67;;;7.60;;
50102;SDS011;35993;52.604;10.078;2022-12-17T15:52:55;14.70;;;7.07;;
50102;SDS011;35993;52.604;10.078;2022-12-17T15:55:21;14.83;;;7.83;;
50102;SDS011;35993;52.604;10.078;2022-12-17T15:57:47;18.13;;;7.83;;
50102;SDS011;35993;52.604;10.078;2022-12-17T16:00:33;15.10;;;7.30;;
50102;SDS011;35993;52.604;10.078;2022-12-17T16:02:59;16.37;;;7.87;;
50102;SDS011;35993;52.604;10.078;2022-12-17T16:05:25;14.40;;;7.73;;
50102;SDS011;35993;52.604;10.078;2022-12-17T16:07:50;16.90;;;8.13;;
50102;SDS011;35993;52.604;10.078;2022-12-17T16:10:18;15.77;;;8.13;;
50102;SDS011;35993;52.604;10.078;2022-12-17T16:12:44;19.10;;;8.57;;
50102;SDS011;35993;52.604;10.078;2022-12-17T16:15:10;17.23;;;9.00;;
50102;SDS011;35993;52.604;10.078;2022-12-17T16:17:36;14.63;;;8.83;;
50102;SDS011;35993;52.604;10.078;2022-12-17T16:20:05;19.33;;;9.03;;
50102;SDS011;35993;52.604;10.078;2022-12-17T16:22:32;19.37;;;9.13;;
50102;SDS011;35993;52.604;10.078;2022-12-17T16:24:59;18.23;;;9.30;;
50102;SDS011;35993;52.604;10.078;2022-12-17T16:27:24;20.80;;;9.30;;
50102;SDS011;35993;52.604;10.078;2022-12-17T16:29:50;19.27;;;9.27;;
50102;SDS011;35993;52.604;10.078;2022-12-17T16:32:16;19.27;;;9.47;;
50102;SDS011;35993;52.604;10.078;2022-12-17T16:34:42;19.50;;;9.83;;
50102;SDS011;35993;52.604;10.078;2022-12-17T16:37:14;19.90;;;9.40;;
50102;SDS011;35993;52.604;10.078;2022-12-17T16:39:40;17.87;;;9.43;;
50102;SDS011;35993;52.604;10.078;2022-12-17T16:42:06;26.27;;;10.07;;
50102;SDS011;35993;52.604;10.078;2022-12-17T16:44:31;23.30;;;9.90;;
50102;SDS011;35993;52.604;10.078;2022-12-17T16:46:57;21.40;;;9.97;;
50102;SDS011;35993;52.604;10.078;2022-12-17T16:49:23;20.53;;;9.93;;
50102;SDS011;35993;52.604;10.078;2022-12-17T16:51:49;21.30;;;9.60;;
50102;SDS011;35993;52.604;10.078;2022-12-17T16:54:17;21.33;;;9.67;;
50102;SDS011;35993;52.604;10.078;2022-12-17T16:56:44;20.30;;;9.77;;
50102;SDS011;35993;52.604;10.078;2022-12-17T16:59:12;17.27;;;9.57;;
50102;SDS011;35993;52.604;10.078;2022-12-17T17:01:40;18.57;;;9.83;;
50102;SDS011;35993;52.604;10.078;2022-12-17T17:04:09;18.80;;;9.77;;
50102;SDS011;35993;52.604;10.078;2022-12-17T17:06:39;22.47;;;10.47;;